sensor_id;sensor_type;location;lat;lon;timestamp;P1;durP1;ratioP1;P2;durP2;ratioP2
19525;SDS011;9907;42.676;26.348;2022-09-03T00:00:51;8.67;;;6.93;;
19525;SDS011;9907;42.676;26.348;2022-09-03T00:06:00;7.63;;;6.93;;
19525;SDS011;9907;42.676;26.348;2022-09-03T00:09:22;8.33;;;7.53;;
19525;SDS011;9907;42.676;26.348;2022-09-03T00:14:15;9.93;;;6.97;;
19525;SDS011;9907;42.676;26.348;2022-09-03T00:16:56;7.37;;;6.63;;
19525;SDS011;9907;42.676;26.348;2022-09-03T00:19:43;8.43;;;7.60;;
19525;SDS011;9907;42.676;26.348;2022-09-03T00:22:22;9.53;;;7.37;;
19525;SDS011;9907;42.676;26.348;2022-09-03T00:24:52;12.37;;;7.80;;
19525;SDS011;9907;42.676;26.348;2022-09-03T00:27:21;9.40;;;7.47;;
19525;SDS011;9907;42.676;26.348;2022-09-03T00:30:32;10.73;;;7.47;;
19525;SDS011;9907;42.676;26.348;2022-09-03T00:32:47;8.10;;;7.30;;
19525;SDS011;9907;42.676;26.348;2022-09-03T00:35:32;7.57;;;6.77;;
19525;SDS011;9907;42.676;26.348;2022-09-03T00:38:01;8.80;;;7.80;;
19525;SDS011;9907;42.676;26.348;2022-09-03T00:40:34;8.57;;;7.30;;
19525;SDS011;9907;42.676;26.348;2022-09-03T00:48:54;8.07;;;6.63;;
19525;SDS011;9907;42.676;26.348;2022-09-03T00:54:05;7.70;;;6.80;;
19525;SDS011;9907;42.676;26.348;2022-09-03T00:56:46;7.50;;;6.77;;
19525;SDS011;9907;42.676;26.348;2022-09-03T00:59:26;7.60;;;6.67;;
19525;SDS011;9907;42.676;26.348;2022-09-03T01:02:11;10.10;;;7.30;;
19525;SDS011;9907;42.676;26.348;2022-09-03T01:04:56;7.47;;;6.43;;
19525;SDS011;9907;42.676;26.348;2022-09-03T01:07:47;7.27;;;6.27;;
19525;SDS011;9907;42.676;26.348;2022-09-03T01:13:08;7.77;;;7.07;;
19525;SDS011;9907;42.676;26.348;2022-09-03T01:30:30;7.20;;;6.50;;
19525;SDS011;9907;42.676;26.348;2022-09-03T01:39:02;8.63;;;6.27;;
19525;SDS011;9907;42.676;26.348;2022-09-03T01:44:20;6.00;;;5.50;;
19525;SDS011;9907;42.676;26.348;2022-09-03T01:52:40;5.80;;;5.23;;
19525;SDS011;9907;42.676;26.348;2022-09-03T02:00:59;5.57;;;4.97;;
19525;SDS011;9907;42.676;26.348;2022-09-03T02:03:37;4.93;;;4.53;;
19525;SDS011;9907;42.676;26.348;2022-09-03T02:06:07;6.73;;;5.20;;
19525;SDS011;9907;42.676;26.348;2022-09-03T02:08:34;5.07;;;4.57;;
19525;SDS011;9907;42.676;26.348;2022-09-03T02:11:00;4.53;;;4.13;;
19525;SDS011;9907;42.676;26.348;2022-09-03T02:13:44;6.43;;;4.40;;
19525;SDS011;9907;42.676;26.348;2022-09-03T02:16:20;6.07;;;4.60;;
19525;SDS011;9907;42.676;26.348;2022-09-03T02:18:55;5.43;;;4.70;;
19525;SDS011;9907;42.676;26.348;2022-09-03T02:21:26;4.80;;;4.30;;
19525;SDS011;9907;42.676;26.348;2022-09-03T02:23:53;4.60;;;4.20;;
19525;SDS011;9907;42.676;26.348;2022-09-03T02:26:20;4.80;;;4.27;;
19525;SDS011;9907;42.676;26.348;2022-09-03T02:28:48;7.73;;;4.17;;
19525;SDS011;9907;42.676;26.348;2022-09-03T02:31:15;3.97;;;3.67;;
19525;SDS011;9907;42.676;26.348;2022-09-03T02:33:41;3.90;;;3.50;;
19525;SDS011;9907;42.676;26.348;2022-09-03T02:36:10;3.00;;;2.80;;
19525;SDS011;9907;42.676;26.348;2022-09-03T02:38:39;2.60;;;2.40;;
19525;SDS011;9907;42.676;26.348;2022-09-03T02:41:06;1.93;;;1.83;;
19525;SDS011;9907;42.676;26.348;2022-09-03T02:43:40;1.40;;;1.30;;
19525;SDS011;9907;42.676;26.348;2022-09-03T02:46:12;1.93;;;1.50;;
19525;SDS011;9907;42.676;26.348;2022-09-03T02:48:45;1.60;;;1.33;;
19525;SDS011;9907;42.676;26.348;2022-09-03T02:51:10;2.43;;;1.17;;
19525;SDS011;9907;42.676;26.348;2022-09-03T02:53:36;5.67;;;1.10;;
19525;SDS011;9907;42.676;26.348;2022-09-03T02:56:02;0.80;;;0.80;;
19525;SDS011;9907;42.676;26.348;2022-09-03T02:58:28;1.27;;;1.17;;
19525;SDS011;9907;42.676;26.348;2022-09-03T03:00:55;1.07;;;0.90;;
19525;SDS011;9907;42.676;26.348;2022-09-03T03:03:22;2.60;;;1.10;;
19525;SDS011;9907;42.676;26.348;2022-09-03T03:05:48;0.93;;;0.93;;
19525;SDS011;9907;42.676;26.348;2022-09-03T03:08:16;1.20;;;1.00;;
19525;SDS011;9907;42.676;26.348;2022-09-03T03:10:46;1.60;;;0.93;;
19525;SDS011;9907;42.676;26.348;2022-09-03T03:13:13;1.07;;;1.07;;
19525;SDS011;9907;42.676;26.348;2022-09-03T03:15:39;0.93;;;0.93;;
19525;SDS011;9907;42.676;26.348;2022-09-03T03:18:05;1.20;;;1.20;;
19525;SDS011;9907;42.676;26.348;2022-09-03T03:20:32;1.43;;;1.33;;
19525;SDS011;9907;42.676;26.348;2022-09-03T03:23:00;2.17;;;1.30;;
19525;SDS011;9907;42.676;26.348;2022-09-03T03:25:26;1.70;;;1.60;;
19525;SDS011;9907;42.676;26.348;2022-09-03T03:27:53;1.90;;;1.70;;
19525;SDS011;9907;42.676;26.348;2022-09-03T03:30:21;2.67;;;1.63;;
19525;SDS011;9907;42.676;26.348;2022-09-03T03:32:47;1.70;;;1.60;;
19525;SDS011;9907;42.676;26.348;2022-09-03T03:35:13;2.90;;;1.93;;
19525;SDS011;9907;42.676;26.348;2022-09-03T03:37:38;3.50;;;2.23;;
19525;SDS011;9907;42.676;26.348;2022-09-03T03:40:04;2.50;;;2.30;;
19525;SDS011;9907;42.676;26.348;2022-09-03T03:42:32;2.50;;;2.03;;
19525;SDS011;9907;42.676;26.348;2022-09-03T03:44:58;3.10;;;1.97;;
19525;SDS011;9907;42.676;26.348;2022-09-03T03:47:24;2.50;;;2.30;;
19525;SDS011;9907;42.676;26.348;2022-09-03T03:49:49;2.77;;;2.40;;
19525;SDS011;9907;42.676;26.348;2022-09-03T03:52:15;2.53;;;2.20;;
19525;SDS011;9907;42.676;26.348;2022-09-03T03:54:40;2.30;;;2.10;;
19525;SDS011;9907;42.676;26.348;2022-09-03T03:57:06;2.30;;;2.10;;
19525;SDS011;9907;42.676;26.348;2022-09-03T03:59:31;2.60;;;2.40;;
19525;SDS011;9907;42.676;26.348;2022-09-03T04:01:56;2.53;;;2.33;;
19525;SDS011;9907;42.676;26.348;2022-09-03T04:04:22;2.10;;;2.00;;
19525;SDS011;9907;42.676;26.348;2022-09-03T04:06:47;3.57;;;2.37;;
19525;SDS011;9907;42.676;26.348;2022-09-03T04:09:13;2.43;;;2.10;;
19525;SDS011;9907;42.676;26.348;2022-09-03T04:11:38;2.30;;;2.10;;
19525;SDS011;9907;42.676;26.348;2022-09-03T04:14:04;3.03;;;2.50;;
19525;SDS011;9907;42.676;26.348;2022-09-03T04:16:29;2.57;;;2.30;;
19525;SDS011;9907;42.676;26.348;2022-09-03T04:18:56;2.97;;;2.77;;
19525;SDS011;9907;42.676;26.348;2022-09-03T04:21:23;2.90;;;2.70;;
19525;SDS011;9907;42.676;26.348;2022-09-03T04:23:51;3.33;;;3.03;;
19525;SDS011;9907;42.676;26.348;2022-09-03T04:26:21;3.33;;;3.03;;
19525;SDS011;9907;42.676;26.348;2022-09-03T04:28:48;3.23;;;2.93;;
19525;SDS011;9907;42.676;26.348;2022-09-03T04:31:14;6.83;;;3.97;;
19525;SDS011;9907;42.676;26.348;2022-09-03T04:33:41;6.63;;;4.27;;
19525;SDS011;9907;42.676;26.348;2022-09-03T04:36:11;3.50;;;3.20;;
19525;SDS011;9907;42.676;26.348;2022-09-03T04:38:37;3.47;;;3.17;;
19525;SDS011;9907;42.676;26.348;2022-09-03T04:41:05;3.57;;;3.30;;
19525;SDS011;9907;42.676;26.348;2022-09-03T04:43:32;2.90;;;2.70;;
19525;SDS011;9907;42.676;26.348;2022-09-03T04:45:58;4.13;;;2.90;;
19525;SDS011;9907;42.676;26.348;2022-09-03T04:48:25;3.40;;;2.57;;
19525;SDS011;9907;42.676;26.348;2022-09-03T04:50:52;3.37;;;3.07;;
19525;SDS011;9907;42.676;26.348;2022-09-03T04:53:18;3.33;;;3.03;;
19525;SDS011;9907;42.676;26.348;2022-09-03T04:55:44;3.67;;;3.37;;
19525;SDS011;9907;42.676;26.348;2022-09-03T04:58:09;3.90;;;3.60;;
19525;SDS011;9907;42.676;26.348;2022-09-03T05:00:35;3.40;;;3.10;;
19525;SDS011;9907;42.676;26.348;2022-09-03T05:03:02;3.77;;;3.47;;
19525;SDS011;9907;42.676;26.348;2022-09-03T05:05:30;3.50;;;3.20;;
19525;SDS011;9907;42.676;26.348;2022-09-03T05:07:58;3.93;;;3.53;;
19525;SDS011;9907;42.676;26.348;2022-09-03T05:10:25;4.30;;;3.00;;
19525;SDS011;9907;42.676;26.348;2022-09-03T05:13:04;3.27;;;3.07;;
19525;SDS011;9907;42.676;26.348;2022-09-03T05:15:30;3.17;;;2.73;;
19525;SDS011;9907;42.676;26.348;2022-09-03T05:18:00;2.50;;;2.30;;
19525;SDS011;9907;42.676;26.348;2022-09-03T05:20:26;3.40;;;2.33;;
19525;SDS011;9907;42.676;26.348;2022-09-03T05:22:54;2.87;;;2.57;;
19525;SDS011;9907;42.676;26.348;2022-09-03T05:25:21;2.63;;;2.40;;
19525;SDS011;9907;42.676;26.348;2022-09-03T05:27:47;2.87;;;2.57;;
19525;SDS011;9907;42.676;26.348;2022-09-03T05:30:13;4.47;;;2.87;;
19525;SDS011;9907;42.676;26.348;2022-09-03T05:32:39;2.80;;;2.60;;
19525;SDS011;9907;42.676;26.348;2022-09-03T05:35:05;2.60;;;2.40;;
19525;SDS011;9907;42.676;26.348;2022-09-03T05:37:31;3.37;;;3.07;;
19525;SDS011;9907;42.676;26.348;2022-09-03T05:39:57;3.10;;;2.90;;
19525;SDS011;9907;42.676;26.348;2022-09-03T05:42:23;3.57;;;3.27;;
19525;SDS011;9907;42.676;26.348;2022-09-03T05:44:48;3.20;;;2.93;;
19525;SDS011;9907;42.676;26.348;2022-09-03T05:47:14;3.17;;;2.87;;
19525;SDS011;9907;42.676;26.348;2022-09-03T05:49:40;3.40;;;2.90;;
19525;SDS011;9907;42.676;26.348;2022-09-03T05:52:06;3.07;;;2.80;;
19525;SDS011;9907;42.676;26.348;2022-09-03T05:54:32;3.23;;;2.90;;
19525;SDS011;9907;42.676;26.348;2022-09-03T05:56:57;3.03;;;2.83;;
19525;SDS011;9907;42.676;26.348;2022-09-03T05:59:23;4.00;;;3.65;;
19525;SDS011;9907;42.676;26.348;2022-09-03T06:01:49;3.15;;;2.92;;
19525;SDS011;9907;42.676;26.348;2022-09-03T06:04:14;3.00;;;2.60;;
19525;SDS011;9907;42.676;26.348;2022-09-03T06:06:44;2.88;;;2.53;;
19525;SDS011;9907;42.676;26.348;2022-09-03T06:09:15;2.92;;;2.72;;
19525;SDS011;9907;42.676;26.348;2022-09-03T06:11:45;2.90;;;2.13;;
19525;SDS011;9907;42.676;26.348;2022-09-03T06:14:13;2.20;;;2.00;;
19525;SDS011;9907;42.676;26.348;2022-09-03T06:16:41;2.40;;;2.20;;
19525;SDS011;9907;42.676;26.348;2022-09-03T06:19:16;2.22;;;2.08;;
19525;SDS011;9907;42.676;26.348;2022-09-03T06:21:42;3.83;;;2.22;;
19525;SDS011;9907;42.676;26.348;2022-09-03T06:24:14;1.90;;;1.80;;
19525;SDS011;9907;42.676;26.348;2022-09-03T06:26:40;3.05;;;1.73;;
19525;SDS011;9907;42.676;26.348;2022-09-03T06:29:06;1.90;;;1.73;;
19525;SDS011;9907;42.676;26.348;2022-09-03T06:31:32;1.60;;;1.50;;
19525;SDS011;9907;42.676;26.348;2022-09-03T06:33:57;1.58;;;1.48;;
19525;SDS011;9907;42.676;26.348;2022-09-03T06:36:23;2.22;;;1.88;;
19525;SDS011;9907;42.676;26.348;2022-09-03T06:38:51;3.53;;;1.33;;
19525;SDS011;9907;42.676;26.348;2022-09-03T06:41:18;1.77;;;1.58;;
19525;SDS011;9907;42.676;26.348;2022-09-03T06:43:49;1.73;;;1.30;;
19525;SDS011;9907;42.676;26.348;2022-09-03T06:46:18;2.20;;;1.50;;
19525;SDS011;9907;42.676;26.348;2022-09-03T06:48:46;1.20;;;1.10;;
19525;SDS011;9907;42.676;26.348;2022-09-03T06:51:19;1.50;;;1.20;;
19525;SDS011;9907;42.676;26.348;2022-09-03T06:53:50;1.20;;;1.03;;
19525;SDS011;9907;42.676;26.348;2022-09-03T06:56:19;1.63;;;1.50;;
19525;SDS011;9907;42.676;26.348;2022-09-03T06:58:51;4.63;;;2.83;;
19525;SDS011;9907;42.676;26.348;2022-09-03T07:01:22;5.77;;;3.67;;
19525;SDS011;9907;42.676;26.348;2022-09-03T07:03:54;3.50;;;2.50;;
19525;SDS011;9907;42.676;26.348;2022-09-03T07:06:21;13.43;;;9.10;;
19525;SDS011;9907;42.676;26.348;2022-09-03T07:08:49;9.87;;;6.87;;
19525;SDS011;9907;42.676;26.348;2022-09-03T07:11:19;4.40;;;3.27;;
19525;SDS011;9907;42.676;26.348;2022-09-03T07:13:48;3.97;;;2.10;;
19525;SDS011;9907;42.676;26.348;2022-09-03T07:16:19;2.07;;;1.83;;
19525;SDS011;9907;42.676;26.348;2022-09-03T07:18:47;1.70;;;1.60;;
19525;SDS011;9907;42.676;26.348;2022-09-03T07:21:14;1.60;;;1.33;;
19525;SDS011;9907;42.676;26.348;2022-09-03T07:23:41;2.20;;;1.40;;
19525;SDS011;9907;42.676;26.348;2022-09-03T07:26:16;1.58;;;1.48;;
19525;SDS011;9907;42.676;26.348;2022-09-03T07:28:44;1.40;;;1.20;;
19525;SDS011;9907;42.676;26.348;2022-09-03T07:31:11;1.52;;;1.10;;
19525;SDS011;9907;42.676;26.348;2022-09-03T07:33:39;1.10;;;1.10;;
19525;SDS011;9907;42.676;26.348;2022-09-03T07:36:06;2.85;;;1.23;;
19525;SDS011;9907;42.676;26.348;2022-09-03T07:38:34;1.33;;;1.02;;
19525;SDS011;9907;42.676;26.348;2022-09-03T07:41:00;1.50;;;1.40;;
19525;SDS011;9907;42.676;26.348;2022-09-03T07:43:32;2.97;;;1.25;;
19525;SDS011;9907;42.676;26.348;2022-09-03T07:45:59;1.23;;;1.15;;
19525;SDS011;9907;42.676;26.348;2022-09-03T07:48:25;1.10;;;1.10;;
19525;SDS011;9907;42.676;26.348;2022-09-03T07:50:51;1.65;;;1.10;;
19525;SDS011;9907;42.676;26.348;2022-09-03T07:53:17;2.53;;;1.70;;
19525;SDS011;9907;42.676;26.348;2022-09-03T07:55:46;1.85;;;1.48;;
19525;SDS011;9907;42.676;26.348;2022-09-03T07:58:12;1.00;;;1.00;;
19525;SDS011;9907;42.676;26.348;2022-09-03T08:00:38;0.70;;;0.70;;
19525;SDS011;9907;42.676;26.348;2022-09-03T08:03:04;3.67;;;1.30;;
19525;SDS011;9907;42.676;26.348;2022-09-03T08:05:32;1.30;;;1.20;;
19525;SDS011;9907;42.676;26.348;2022-09-03T08:08:00;1.10;;;1.03;;
19525;SDS011;9907;42.676;26.348;2022-09-03T08:10:29;1.40;;;1.00;;
19525;SDS011;9907;42.676;26.348;2022-09-03T08:12:58;1.10;;;1.10;;
19525;SDS011;9907;42.676;26.348;2022-09-03T08:15:24;2.93;;;0.80;;
19525;SDS011;9907;42.676;26.348;2022-09-03T08:17:51;0.70;;;0.70;;
19525;SDS011;9907;42.676;26.348;2022-09-03T08:20:17;1.70;;;1.10;;
19525;SDS011;9907;42.676;26.348;2022-09-03T08:22:43;0.80;;;0.80;;
19525;SDS011;9907;42.676;26.348;2022-09-03T08:25:09;1.30;;;1.20;;
19525;SDS011;9907;42.676;26.348;2022-09-03T08:27:34;2.17;;;1.40;;
19525;SDS011;9907;42.676;26.348;2022-09-03T08:30:00;1.13;;;1.03;;
19525;SDS011;9907;42.676;26.348;2022-09-03T08:32:25;1.30;;;1.20;;
19525;SDS011;9907;42.676;26.348;2022-09-03T08:34:51;1.47;;;1.30;;
19525;SDS011;9907;42.676;26.348;2022-09-03T08:37:16;3.30;;;1.40;;
19525;SDS011;9907;42.676;26.348;2022-09-03T08:39:42;1.43;;;1.33;;
19525;SDS011;9907;42.676;26.348;2022-09-03T08:42:15;1.50;;;1.40;;
19525;SDS011;9907;42.676;26.348;2022-09-03T08:44:51;3.67;;;2.17;;
19525;SDS011;9907;42.676;26.348;2022-09-03T08:47:21;1.53;;;1.43;;
19525;SDS011;9907;42.676;26.348;2022-09-03T08:52:35;2.07;;;1.80;;
19525;SDS011;9907;42.676;26.348;2022-09-03T08:57:50;1.87;;;1.73;;
19525;SDS011;9907;42.676;26.348;2022-09-03T09:00:21;2.53;;;2.10;;
19525;SDS011;9907;42.676;26.348;2022-09-03T09:12:00;1.37;;;1.27;;
19525;SDS011;9907;42.676;26.348;2022-09-03T09:17:10;1.30;;;1.20;;
19525;SDS011;9907;42.676;26.348;2022-09-03T09:20:00;1.20;;;1.20;;
19525;SDS011;9907;42.676;26.348;2022-09-03T09:22:34;4.57;;;4.13;;
19525;SDS011;9907;42.676;26.348;2022-09-03T09:25:05;5.07;;;3.00;;
19525;SDS011;9907;42.676;26.348;2022-09-03T09:27:39;1.80;;;1.70;;
19525;SDS011;9907;42.676;26.348;2022-09-03T09:30:11;3.23;;;2.70;;
19525;SDS011;9907;42.676;26.348;2022-09-03T09:32:40;2.20;;;2.00;;
19525;SDS011;9907;42.676;26.348;2022-09-03T09:35:09;3.30;;;2.50;;
19525;SDS011;9907;42.676;26.348;2022-09-03T09:37:45;3.80;;;3.07;;
19525;SDS011;9907;42.676;26.348;2022-09-03T09:40:32;3.30;;;2.83;;
19525;SDS011;9907;42.676;26.348;2022-09-03T09:43:18;5.33;;;3.63;;
19525;SDS011;9907;42.676;26.348;2022-09-03T09:45:46;4.60;;;2.80;;
19525;SDS011;9907;42.676;26.348;2022-09-03T09:48:29;2.60;;;1.87;;
19525;SDS011;9907;42.676;26.348;2022-09-03T09:54:02;2.37;;;1.93;;
19525;SDS011;9907;42.676;26.348;2022-09-03T09:56:28;2.67;;;1.93;;
19525;SDS011;9907;42.676;26.348;2022-09-03T09:59:08;2.40;;;2.20;;
19525;SDS011;9907;42.676;26.348;2022-09-03T10:01:36;3.10;;;1.80;;
19525;SDS011;9907;42.676;26.348;2022-09-03T10:04:07;2.47;;;1.90;;
19525;SDS011;9907;42.676;26.348;2022-09-03T10:06:35;2.50;;;1.90;;
19525;SDS011;9907;42.676;26.348;2022-09-03T10:09:22;2.20;;;2.00;;
19525;SDS011;9907;42.676;26.348;2022-09-03T10:12:07;3.27;;;2.20;;
19525;SDS011;9907;42.676;26.348;2022-09-03T10:14:48;2.20;;;2.00;;
19525;SDS011;9907;42.676;26.348;2022-09-03T10:22:55;2.00;;;1.80;;
19525;SDS011;9907;42.676;26.348;2022-09-03T10:25:26;2.83;;;2.23;;
19525;SDS011;9907;42.676;26.348;2022-09-03T10:27:59;2.40;;;2.20;;
19525;SDS011;9907;42.676;26.348;2022-09-03T10:30:26;2.77;;;2.57;;
19525;SDS011;9907;42.676;26.348;2022-09-03T10:33:01;4.57;;;3.93;;
19525;SDS011;9907;42.676;26.348;2022-09-03T10:35:41;2.50;;;2.30;;
19525;SDS011;9907;42.676;26.348;2022-09-03T10:48:47;3.03;;;2.70;;
19525;SDS011;9907;42.676;26.348;2022-09-03T10:51:18;2.63;;;2.13;;
19525;SDS011;9907;42.676;26.348;2022-09-03T10:56:49;2.77;;;2.30;;
19525;SDS011;9907;42.676;26.348;2022-09-03T10:59:35;4.03;;;2.80;;
19525;SDS011;9907;42.676;26.348;2022-09-03T11:05:17;4.00;;;3.17;;
19525;SDS011;9907;42.676;26.348;2022-09-03T11:08:47;3.10;;;2.77;;
19525;SDS011;9907;42.676;26.348;2022-09-03T11:10:47;2.50;;;2.40;;
19525;SDS011;9907;42.676;26.348;2022-09-03T11:13:23;4.00;;;2.90;;
19525;SDS011;9907;42.676;26.348;2022-09-03T11:15:54;3.67;;;2.53;;
19525;SDS011;9907;42.676;26.348;2022-09-03T11:21:42;2.70;;;2.50;;
19525;SDS011;9907;42.676;26.348;2022-09-03T11:24:10;3.20;;;2.93;;
19525;SDS011;9907;42.676;26.348;2022-09-03T11:26:47;2.50;;;2.30;;
19525;SDS011;9907;42.676;26.348;2022-09-03T11:29:24;3.20;;;2.90;;
19525;SDS011;9907;42.676;26.348;2022-09-03T11:32:01;2.53;;;2.40;;
19525;SDS011;9907;42.676;26.348;2022-09-03T11:34:49;2.50;;;2.30;;
19525;SDS011;9907;42.676;26.348;2022-09-03T11:42:38;2.63;;;2.43;;
19525;SDS011;9907;42.676;26.348;2022-09-03T11:45:14;2.87;;;2.60;;
19525;SDS011;9907;42.676;26.348;2022-09-03T11:47:58;3.10;;;2.80;;
19525;SDS011;9907;42.676;26.348;2022-09-03T11:50:25;2.60;;;2.40;;
19525;SDS011;9907;42.676;26.348;2022-09-03T11:53:08;3.00;;;2.70;;
19525;SDS011;9907;42.676;26.348;2022-09-03T11:58:29;3.00;;;2.80;;
19525;SDS011;9907;42.676;26.348;2022-09-03T12:00:57;3.27;;;2.97;;
19525;SDS011;9907;42.676;26.348;2022-09-03T12:03:44;2.63;;;2.43;;
19525;SDS011;9907;42.676;26.348;2022-09-03T12:17:37;5.23;;;3.00;;
19525;SDS011;9907;42.676;26.348;2022-09-03T12:20:36;3.40;;;3.20;;
19525;SDS011;9907;42.676;26.348;2022-09-03T12:23:02;3.27;;;3.03;;
19525;SDS011;9907;42.676;26.348;2022-09-03T12:25:28;3.50;;;3.20;;
19525;SDS011;9907;42.676;26.348;2022-09-03T12:27:53;3.20;;;2.90;;
19525;SDS011;9907;42.676;26.348;2022-09-03T12:30:22;2.87;;;2.67;;
19525;SDS011;9907;42.676;26.348;2022-09-03T12:32:49;3.80;;;3.50;;
19525;SDS011;9907;42.676;26.348;2022-09-03T12:35:22;3.50;;;3.20;;
19525;SDS011;9907;42.676;26.348;2022-09-03T12:37:50;2.73;;;2.57;;
19525;SDS011;9907;42.676;26.348;2022-09-03T12:40:17;3.10;;;2.80;;
19525;SDS011;9907;42.676;26.348;2022-09-03T12:42:45;2.83;;;2.63;;
19525;SDS011;9907;42.676;26.348;2022-09-03T12:45:12;3.80;;;3.43;;
19525;SDS011;9907;42.676;26.348;2022-09-03T12:47:41;4.10;;;3.33;;
19525;SDS011;9907;42.676;26.348;2022-09-03T12:50:14;3.40;;;3.10;;
19525;SDS011;9907;42.676;26.348;2022-09-03T12:58:08;2.77;;;2.57;;
19525;SDS011;9907;42.676;26.348;2022-09-03T13:00:36;3.90;;;3.50;;
19525;SDS011;9907;42.676;26.348;2022-09-03T13:03:12;4.37;;;3.00;;
19525;SDS011;9907;42.676;26.348;2022-09-03T13:05:55;3.10;;;2.90;;
19525;SDS011;9907;42.676;26.348;2022-09-03T13:08:26;3.67;;;3.37;;
19525;SDS011;9907;42.676;26.348;2022-09-03T13:10:57;3.10;;;2.90;;
19525;SDS011;9907;42.676;26.348;2022-09-03T13:13:34;3.43;;;3.23;;
19525;SDS011;9907;42.676;26.348;2022-09-03T13:21:29;3.60;;;3.30;;
19525;SDS011;9907;42.676;26.348;2022-09-03T13:27:09;3.37;;;3.17;;
19525;SDS011;9907;42.676;26.348;2022-09-03T13:33:00;3.60;;;3.30;;
19525;SDS011;9907;42.676;26.348;2022-09-03T13:35:50;3.80;;;3.17;;
19525;SDS011;9907;42.676;26.348;2022-09-03T13:38:32;3.53;;;3.33;;
19525;SDS011;9907;42.676;26.348;2022-09-03T13:41:08;3.90;;;3.60;;
19525;SDS011;9907;42.676;26.348;2022-09-03T13:44:05;3.90;;;3.20;;
19525;SDS011;9907;42.676;26.348;2022-09-03T13:49:53;3.43;;;3.13;;
19525;SDS011;9907;42.676;26.348;2022-09-03T14:00:39;3.60;;;3.30;;
19525;SDS011;9907;42.676;26.348;2022-09-03T14:27:11;3.87;;;3.57;;
19525;SDS011;9907;42.676;26.348;2022-09-03T14:29:37;4.37;;;3.97;;
19525;SDS011;9907;42.676;26.348;2022-09-03T14:38:18;3.63;;;3.33;;
19525;SDS011;9907;42.676;26.348;2022-09-03T14:40:56;3.97;;;3.00;;
19525;SDS011;9907;42.676;26.348;2022-09-03T15:00:36;3.83;;;3.53;;
19525;SDS011;9907;42.676;26.348;2022-09-03T15:05:52;3.63;;;3.33;;
19525;SDS011;9907;42.676;26.348;2022-09-03T15:11:17;3.53;;;3.23;;
19525;SDS011;9907;42.676;26.348;2022-09-03T15:22:25;3.77;;;3.47;;
19525;SDS011;9907;42.676;26.348;2022-09-03T15:30:22;4.67;;;3.53;;
19525;SDS011;9907;42.676;26.348;2022-09-03T15:33:23;3.57;;;3.33;;
19525;SDS011;9907;42.676;26.348;2022-09-03T15:39:23;3.70;;;3.40;;
19525;SDS011;9907;42.676;26.348;2022-09-03T15:41:55;3.50;;;3.20;;
19525;SDS011;9907;42.676;26.348;2022-09-03T15:44:24;4.10;;;3.70;;
19525;SDS011;9907;42.676;26.348;2022-09-03T15:49:51;3.17;;;2.90;;
19525;SDS011;9907;42.676;26.348;2022-09-03T15:55:10;3.33;;;3.03;;
19525;SDS011;9907;42.676;26.348;2022-09-03T16:00:28;3.60;;;3.30;;
19525;SDS011;9907;42.676;26.348;2022-09-03T16:03:00;7.30;;;5.93;;
19525;SDS011;9907;42.676;26.348;2022-09-03T16:05:45;21.93;;;13.67;;
19525;SDS011;9907;42.676;26.348;2022-09-03T16:13:57;41.93;;;21.43;;
19525;SDS011;9907;42.676;26.348;2022-09-03T16:17:00;6.43;;;5.50;;
19525;SDS011;9907;42.676;26.348;2022-09-03T16:19:33;4.77;;;4.27;;
19525;SDS011;9907;42.676;26.348;2022-09-03T16:22:30;6.33;;;4.77;;
19525;SDS011;9907;42.676;26.348;2022-09-03T16:25:21;3.37;;;2.87;;
19525;SDS011;9907;42.676;26.348;2022-09-03T16:28:07;11.87;;;6.63;;
19525;SDS011;9907;42.676;26.348;2022-09-03T16:30:59;21.50;;;12.37;;
19525;SDS011;9907;42.676;26.348;2022-09-03T17:01:50;4.97;;;3.73;;
19525;SDS011;9907;42.676;26.348;2022-09-03T17:15:21;4.23;;;2.77;;
19525;SDS011;9907;42.676;26.348;2022-09-03T17:42:23;5.93;;;4.33;;
19525;SDS011;9907;42.676;26.348;2022-09-03T17:51:07;6.90;;;4.53;;
19525;SDS011;9907;42.676;26.348;2022-09-03T18:05:45;11.23;;;7.63;;
19525;SDS011;9907;42.676;26.348;2022-09-03T18:17:02;6.33;;;4.27;;
19525;SDS011;9907;42.676;26.348;2022-09-03T18:19:33;3.83;;;3.53;;
19525;SDS011;9907;42.676;26.348;2022-09-03T18:22:21;3.83;;;3.53;;
19525;SDS011;9907;42.676;26.348;2022-09-03T18:25:13;5.20;;;4.70;;
19525;SDS011;9907;42.676;26.348;2022-09-03T18:28:05;3.77;;;3.47;;
19525;SDS011;9907;42.676;26.348;2022-09-03T18:30:52;3.40;;;3.10;;
19525;SDS011;9907;42.676;26.348;2022-09-03T18:33:36;3.20;;;3.00;;
19525;SDS011;9907;42.676;26.348;2022-09-03T18:36:19;3.13;;;2.87;;
19525;SDS011;9907;42.676;26.348;2022-09-03T18:39:13;3.53;;;3.23;;
19525;SDS011;9907;42.676;26.348;2022-09-03T18:48:43;3.17;;;2.87;;
19525;SDS011;9907;42.676;26.348;2022-09-03T18:51:39;3.40;;;3.00;;
19525;SDS011;9907;42.676;26.348;2022-09-03T18:57:57;4.13;;;3.67;;
19525;SDS011;9907;42.676;26.348;2022-09-03T19:01:07;7.37;;;5.70;;
19525;SDS011;9907;42.676;26.348;2022-09-03T19:09:55;4.97;;;3.63;;
19525;SDS011;9907;42.676;26.348;2022-09-03T19:12:49;4.10;;;3.70;;
19525;SDS011;9907;42.676;26.348;2022-09-03T19:15:46;3.47;;;3.17;;
19525;SDS011;9907;42.676;26.348;2022-09-03T19:19:16;7.50;;;5.67;;
19525;SDS011;9907;42.676;26.348;2022-09-03T19:22:15;6.13;;;4.80;;
19525;SDS011;9907;42.676;26.348;2022-09-03T19:25:06;5.80;;;5.07;;
19525;SDS011;9907;42.676;26.348;2022-09-03T19:55:05;2.53;;;2.33;;
19525;SDS011;9907;42.676;26.348;2022-09-03T19:57:52;2.80;;;2.60;;
19525;SDS011;9907;42.676;26.348;2022-09-03T20:00:40;2.70;;;2.50;;
19525;SDS011;9907;42.676;26.348;2022-09-03T20:03:24;2.77;;;2.57;;
19525;SDS011;9907;42.676;26.348;2022-09-03T20:06:09;2.70;;;2.50;;
19525;SDS011;9907;42.676;26.348;2022-09-03T20:08:55;3.97;;;2.63;;
19525;SDS011;9907;42.676;26.348;2022-09-03T20:11:45;3.53;;;3.23;;
19525;SDS011;9907;42.676;26.348;2022-09-03T20:14:13;2.90;;;2.70;;
19525;SDS011;9907;42.676;26.348;2022-09-03T20:16:49;4.37;;;3.10;;
19525;SDS011;9907;42.676;26.348;2022-09-03T20:25:45;3.17;;;2.97;;
19525;SDS011;9907;42.676;26.348;2022-09-03T20:36:56;2.70;;;2.50;;
19525;SDS011;9907;42.676;26.348;2022-09-03T20:39:33;2.60;;;2.40;;
19525;SDS011;9907;42.676;26.348;2022-09-03T20:44:52;3.87;;;3.53;;
19525;SDS011;9907;42.676;26.348;2022-09-03T20:47:58;2.70;;;2.50;;
19525;SDS011;9907;42.676;26.348;2022-09-03T20:53:11;2.70;;;2.50;;
19525;SDS011;9907;42.676;26.348;2022-09-03T20:55:47;2.30;;;2.20;;
19525;SDS011;9907;42.676;26.348;2022-09-03T21:18:05;2.87;;;2.67;;
19525;SDS011;9907;42.676;26.348;2022-09-03T21:20:43;3.20;;;2.90;;
19525;SDS011;9907;42.676;26.348;2022-09-03T21:23:16;3.90;;;3.53;;
19525;SDS011;9907;42.676;26.348;2022-09-03T21:28:26;2.87;;;2.67;;
19525;SDS011;9907;42.676;26.348;2022-09-03T21:31:03;3.33;;;3.03;;
19525;SDS011;9907;42.676;26.348;2022-09-03T21:33:38;2.53;;;2.33;;
19525;SDS011;9907;42.676;26.348;2022-09-03T21:38:56;2.80;;;2.60;;
19525;SDS011;9907;42.676;26.348;2022-09-03T21:44:10;2.90;;;2.70;;
19525;SDS011;9907;42.676;26.348;2022-09-03T21:49:34;3.53;;;2.70;;
19525;SDS011;9907;42.676;26.348;2022-09-03T21:52:16;3.03;;;2.83;;
19525;SDS011;9907;42.676;26.348;2022-09-03T21:54:43;3.00;;;2.80;;
19525;SDS011;9907;42.676;26.348;2022-09-03T22:00:15;3.20;;;2.90;;
19525;SDS011;9907;42.676;26.348;2022-09-03T22:02:42;2.90;;;2.70;;
19525;SDS011;9907;42.676;26.348;2022-09-03T22:05:10;2.97;;;2.77;;
19525;SDS011;9907;42.676;26.348;2022-09-03T22:15:34;3.00;;;2.80;;
19525;SDS011;9907;42.676;26.348;2022-09-03T22:20:40;3.07;;;2.87;;
19525;SDS011;9907;42.676;26.348;2022-09-03T22:23:18;3.00;;;2.80;;
19525;SDS011;9907;42.676;26.348;2022-09-03T22:28:38;3.07;;;2.87;;
19525;SDS011;9907;42.676;26.348;2022-09-03T22:33:55;3.07;;;2.70;;
19525;SDS011;9907;42.676;26.348;2022-09-03T22:36:39;2.87;;;2.67;;